sensor_id;sensor_type;location;lat;lon;timestamp;pressure;altitude;pressure_sealevel;temperature;humidity
50125;BME280;36023;48.670;6.184;2022-07-04T00:00:04;99323.97;;;25.98;36.41
50125;BME280;36023;48.670;6.184;2022-07-04T00:02:30;99324.81;;;25.98;36.42
50125;BME280;36023;48.670;6.184;2022-07-04T00:04:56;99333.63;;;25.99;36.15
50125;BME280;36023;48.670;6.184;2022-07-04T00:07:21;99326.63;;;25.98;36.22
50125;BME280;36023;48.670;6.184;2022-07-04T00:09:49;99331.09;;;25.97;36.22
50125;BME280;36023;48.670;6.184;2022-07-04T00:12:14;99336.41;;;25.97;36.40
50125;BME280;36023;48.670;6.184;2022-07-04T00:14:40;99344.38;;;25.97;36.21
50125;BME280;36023;48.670;6.184;2022-07-04T00:17:06;99339.91;;;25.98;36.23
50125;BME280;36023;48.670;6.184;2022-07-04T00:19:31;99351.34;;;25.98;36.33
50125;BME280;36023;48.670;6.184;2022-07-04T00:21:57;99347.00;;;25.97;36.28
50125;BME280;36023;48.670;6.184;2022-07-04T00:24:22;99349.66;;;25.97;36.19
50125;BME280;36023;48.670;6.184;2022-07-04T00:26:48;99350.50;;;25.98;36.24
50125;BME280;36023;48.670;6.184;2022-07-04T00:29:14;99352.31;;;25.97;36.19
50125;BME280;36023;48.670;6.184;2022-07-04T00:31:40;99349.66;;;25.97;36.21
50125;BME280;36023;48.670;6.184;2022-07-04T00:34:05;99347.00;;;25.97;36.30
50125;BME280;36023;48.670;6.184;2022-07-04T00:36:31;99347.00;;;25.97;36.34
50125;BME280;36023;48.670;6.184;2022-07-04T00:38:56;99351.34;;;25.98;36.22
50125;BME280;36023;48.670;6.184;2022-07-04T00:41:22;99348.00;;;25.96;36.14
50125;BME280;36023;48.670;6.184;2022-07-04T00:46:47;99349.66;;;25.97;36.18
50125;BME280;36023;48.670;6.184;2022-07-04T00:49:15;99353.28;;;25.96;36.19
50125;BME280;36023;48.670;6.184;2022-07-04T00:51:41;99360.28;;;25.97;36.12
50125;BME280;36023;48.670;6.184;2022-07-04T00:54:08;99355.81;;;25.98;36.19
50125;BME280;36023;48.670;6.184;2022-07-04T00:56:37;99350.63;;;25.96;36.13
50125;BME280;36023;48.670;6.184;2022-07-04T00:59:03;99348.00;;;25.96;36.14
50125;BME280;36023;48.670;6.184;2022-07-04T01:01:28;99349.66;;;25.97;36.03
50125;BME280;36023;48.670;6.184;2022-07-04T01:03:55;99362.09;;;25.97;36.24
50125;BME280;36023;48.670;6.184;2022-07-04T01:06:21;99355.09;;;25.96;36.03
50125;BME280;36023;48.670;6.184;2022-07-04T01:08:46;99361.25;;;25.96;36.03
50125;BME280;36023;48.670;6.184;2022-07-04T01:11:14;99363.91;;;25.96;35.85
50125;BME280;36023;48.670;6.184;2022-07-04T01:13:40;99367.41;;;25.97;36.11
50125;BME280;36023;48.670;6.184;2022-07-04T01:16:07;99363.91;;;25.96;36.07
50125;BME280;36023;48.670;6.184;2022-07-04T01:18:33;99367.41;;;25.97;35.99
50125;BME280;36023;48.670;6.184;2022-07-04T01:20:58;99371.88;;;25.96;36.16
50125;BME280;36023;48.670;6.184;2022-07-04T01:23:24;99370.06;;;25.97;36.06
50125;BME280;36023;48.670;6.184;2022-07-04T01:25:50;99366.56;;;25.96;36.13
50125;BME280;36023;48.670;6.184;2022-07-04T01:28:17;99372.72;;;25.97;36.09
50125;BME280;36023;48.670;6.184;2022-07-04T01:30:43;99373.69;;;25.96;36.08
50125;BME280;36023;48.670;6.184;2022-07-04T01:33:08;99374.53;;;25.96;35.97
50125;BME280;36023;48.670;6.184;2022-07-04T01:35:34;99368.38;;;25.96;35.95
50125;BME280;36023;48.670;6.184;2022-07-04T01:37:59;99366.56;;;25.96;35.92
50125;BME280;36023;48.670;6.184;2022-07-04T01:40:25;99371.88;;;25.96;36.05
50125;BME280;36023;48.670;6.184;2022-07-04T01:42:50;99370.19;;;25.95;35.99
50125;BME280;36023;48.670;6.184;2022-07-04T01:45:16;99371.88;;;25.96;36.05
50125;BME280;36023;48.670;6.184;2022-07-04T01:47:43;99363.06;;;25.96;35.93
50125;BME280;36023;48.670;6.184;2022-07-04T01:50:10;99363.06;;;25.96;35.94
50125;BME280;36023;48.670;6.184;2022-07-04T01:52:39;99363.91;;;25.96;35.88
50125;BME280;36023;48.670;6.184;2022-07-04T01:55:05;99361.25;;;25.96;35.98
50125;BME280;36023;48.670;6.184;2022-07-04T01:57:30;99359.56;;;25.95;35.88
50125;BME280;36023;48.670;6.184;2022-07-04T01:59:56;99357.75;;;25.96;35.94
50125;BME280;36023;48.670;6.184;2022-07-04T02:02:40;99353.28;;;25.96;35.79
50125;BME280;36023;48.670;6.184;2022-07-04T02:05:06;99352.44;;;25.96;35.99
50125;BME280;36023;48.670;6.184;2022-07-04T02:07:31;99357.63;;;25.97;35.89
50125;BME280;36023;48.670;6.184;2022-07-04T02:10:03;99355.09;;;25.96;35.91
50125;BME280;36023;48.670;6.184;2022-07-04T02:12:28;99349.78;;;25.96;35.83
50125;BME280;36023;48.670;6.184;2022-07-04T02:15:12;99359.44;;;25.97;35.72
50125;BME280;36023;48.670;6.184;2022-07-04T02:17:37;99355.09;;;25.96;35.87
50125;BME280;36023;48.670;6.184;2022-07-04T02:20:03;99357.75;;;25.96;35.73
50125;BME280;36023;48.670;6.184;2022-07-04T02:22:30;99361.25;;;25.96;35.88
50125;BME280;36023;48.670;6.184;2022-07-04T02:24:55;99365.72;;;25.96;35.75
50125;BME280;36023;48.670;6.184;2022-07-04T02:27:21;99368.38;;;25.96;35.81
50125;BME280;36023;48.670;6.184;2022-07-04T02:29:47;99368.50;;;25.94;35.95
50125;BME280;36023;48.670;6.184;2022-07-04T02:32:12;99361.38;;;25.95;35.91
50125;BME280;36023;48.670;6.184;2022-07-04T02:34:38;99354.38;;;25.94;35.82
50125;BME280;36023;48.670;6.184;2022-07-04T02:37:03;99358.84;;;25.93;35.98
50125;BME280;36023;48.670;6.184;2022-07-04T02:39:29;99363.31;;;25.93;35.90
50125;BME280;36023;48.670;6.184;2022-07-04T02:41:54;99362.47;;;25.92;35.86
50125;BME280;36023;48.670;6.184;2022-07-04T02:44:20;99370.44;;;25.92;35.74
50125;BME280;36023;48.670;6.184;2022-07-04T02:46:49;99369.47;;;25.93;35.93
50125;BME280;36023;48.670;6.184;2022-07-04T02:49:16;99367.78;;;25.92;35.81
50125;BME280;36023;48.670;6.184;2022-07-04T02:51:42;99366.94;;;25.92;35.95
50125;BME280;36023;48.670;6.184;2022-07-04T02:54:08;99358.09;;;25.91;35.81
50125;BME280;36023;48.670;6.184;2022-07-04T02:56:33;99352.81;;;25.91;35.67
50125;BME280;36023;48.670;6.184;2022-07-04T02:58:59;99351.97;;;25.91;35.84
50125;BME280;36023;48.670;6.184;2022-07-04T03:01:24;99359.91;;;25.91;35.67
50125;BME280;36023;48.670;6.184;2022-07-04T03:03:50;99353.78;;;25.90;35.77
50125;BME280;36023;48.670;6.184;2022-07-04T03:06:16;99355.47;;;25.91;35.75
50125;BME280;36023;48.670;6.184;2022-07-04T03:08:42;99350.28;;;25.90;35.77
50125;BME280;36023;48.670;6.184;2022-07-04T03:11:10;99359.06;;;25.90;35.57
50125;BME280;36023;48.670;6.184;2022-07-04T03:13:36;99361.72;;;25.90;35.76
50125;BME280;36023;48.670;6.184;2022-07-04T03:16:02;99364.38;;;25.90;35.69
50125;BME280;36023;48.670;6.184;2022-07-04T03:18:28;99364.38;;;25.90;35.75
50125;BME280;36023;48.670;6.184;2022-07-04T03:20:53;99357.41;;;25.89;35.78
50125;BME280;36023;48.670;6.184;2022-07-04T03:23:19;99368.84;;;25.90;35.53
50125;BME280;36023;48.670;6.184;2022-07-04T03:25:44;99357.41;;;25.89;35.73
50125;BME280;36023;48.670;6.184;2022-07-04T03:28:10;99364.38;;;25.90;35.69
50125;BME280;36023;48.670;6.184;2022-07-04T03:30:36;99374.16;;;25.90;35.60
50125;BME280;36023;48.670;6.184;2022-07-04T03:33:01;99376.81;;;25.90;35.50
50125;BME280;36023;48.670;6.184;2022-07-04T03:35:27;99377.78;;;25.89;35.71
50125;BME280;36023;48.670;6.184;2022-07-04T03:37:52;99384.78;;;25.90;35.60
50125;BME280;36023;48.670;6.184;2022-07-04T03:40:19;99365.34;;;25.89;35.51
50125;BME280;36023;48.670;6.184;2022-07-04T03:42:44;99368.00;;;25.89;35.59
50125;BME280;36023;48.670;6.184;2022-07-04T03:45:10;99366.19;;;25.90;35.41
50125;BME280;36023;48.670;6.184;2022-07-04T03:47:38;99370.66;;;25.89;35.64
50125;BME280;36023;48.670;6.184;2022-07-04T03:50:05;99377.66;;;25.90;35.50
50125;BME280;36023;48.670;6.184;2022-07-04T03:52:30;99372.25;;;25.92;35.40
50125;BME280;36023;48.670;6.184;2022-07-04T03:54:56;99377.44;;;25.93;35.47
50125;BME280;36023;48.670;6.184;2022-07-04T03:57:21;99379.13;;;25.94;35.10
50125;BME280;36023;48.670;6.184;2022-07-04T03:59:47;99380.94;;;25.94;35.28
50125;BME280;36023;48.670;6.184;2022-07-04T04:02:13;99382.50;;;25.96;35.03
50125;BME280;36023;48.670;6.184;2022-07-04T04:04:41;99379.00;;;25.96;35.22
50125;BME280;36023;48.670;6.184;2022-07-04T04:07:25;99399.25;;;25.97;35.07
50125;BME280;36023;48.670;6.184;2022-07-04T04:09:51;99402.75;;;25.97;35.20
50125;BME280;36023;48.670;6.184;2022-07-04T04:12:17;99413.38;;;25.97;35.00
50125;BME280;36023;48.670;6.184;2022-07-04T04:14:43;99414.22;;;25.98;35.04
50125;BME280;36023;48.670;6.184;2022-07-04T04:17:08;99408.06;;;25.97;34.90
50125;BME280;36023;48.670;6.184;2022-07-04T04:19:34;99407.22;;;25.97;35.12
50125;BME280;36023;48.670;6.184;2022-07-04T04:21:59;99407.34;;;25.95;34.94
50125;BME280;36023;48.670;6.184;2022-07-04T04:24:25;99414.34;;;25.96;34.93
50125;BME280;36023;48.670;6.184;2022-07-04T04:26:50;99417.81;;;25.97;34.95
50125;BME280;36023;48.670;6.184;2022-07-04T04:29:16;99413.63;;;25.94;34.83
50125;BME280;36023;48.670;6.184;2022-07-04T04:31:42;99424.22;;;25.94;34.72
50125;BME280;36023;48.670;6.184;2022-07-04T04:34:07;99420.75;;;25.94;34.68
50125;BME280;36023;48.670;6.184;2022-07-04T04:36:33;99417.25;;;25.93;34.61
50125;BME280;36023;48.670;6.184;2022-07-04T04:38:59;99415.66;;;25.91;34.65
50125;BME280;36023;48.670;6.184;2022-07-04T04:41:24;99415.66;;;25.91;34.55
50125;BME280;36023;48.670;6.184;2022-07-04T04:43:50;99414.81;;;25.90;34.36
50125;BME280;36023;48.670;6.184;2022-07-04T04:46:17;99412.41;;;25.87;34.41
50125;BME280;36023;48.670;6.184;2022-07-04T04:48:44;99414.34;;;25.85;34.10
50125;BME280;36023;48.670;6.184;2022-07-04T04:51:10;99413.59;;;25.83;33.89
50125;BME280;36023;48.670;6.184;2022-07-04T04:53:35;99408.28;;;25.83;33.71
50125;BME280;36023;48.670;6.184;2022-07-04T04:56:01;99408.19;;;25.85;33.83
50125;BME280;36023;48.670;6.184;2022-07-04T04:58:27;99402.75;;;25.86;33.54
50125;BME280;36023;48.670;6.184;2022-07-04T05:00:52;99414.34;;;25.85;33.53
50125;BME280;36023;48.670;6.184;2022-07-04T05:03:19;99410.72;;;25.86;33.44
50125;BME280;36023;48.670;6.184;2022-07-04T05:05:45;99411.44;;;25.88;33.75
50125;BME280;36023;48.670;6.184;2022-07-04T05:08:13;99407.69;;;25.91;33.63
50125;BME280;36023;48.670;6.184;2022-07-04T05:10:39;99403.00;;;25.94;33.67
50125;BME280;36023;48.670;6.184;2022-07-04T05:13:05;99407.94;;;25.99;33.89
50125;BME280;36023;48.670;6.184;2022-07-04T05:15:31;99407.59;;;26.03;33.99
50125;BME280;36023;48.670;6.184;2022-07-04T05:17:56;99403.84;;;26.06;33.92
50125;BME280;36023;48.670;6.184;2022-07-04T05:20:22;99397.59;;;26.07;33.88
50125;BME280;36023;48.670;6.184;2022-07-04T05:22:47;99406.38;;;26.07;34.12
50125;BME280;36023;48.670;6.184;2022-07-04T05:25:13;99408.19;;;26.07;34.14
50125;BME280;36023;48.670;6.184;2022-07-04T05:27:38;99403.75;;;26.07;34.05
50125;BME280;36023;48.670;6.184;2022-07-04T05:30:05;99397.59;;;26.07;34.22
50125;BME280;36023;48.670;6.184;2022-07-04T05:32:31;99403.75;;;26.07;34.43
50125;BME280;36023;48.670;6.184;2022-07-04T05:34:56;99401.09;;;26.07;34.41
50125;BME280;36023;48.670;6.184;2022-07-04T05:37:23;99399.38;;;26.06;34.36
50125;BME280;36023;48.670;6.184;2022-07-04T05:39:49;99387.91;;;26.06;34.50
50125;BME280;36023;48.670;6.184;2022-07-04T05:42:14;99388.75;;;26.06;34.55
50125;BME280;36023;48.670;6.184;2022-07-04T05:44:40;99387.91;;;26.06;34.71
50125;BME280;36023;48.670;6.184;2022-07-04T05:47:06;99385.25;;;26.06;34.65
50125;BME280;36023;48.670;6.184;2022-07-04T05:49:33;99384.41;;;26.05;34.81
50125;BME280;36023;48.670;6.184;2022-07-04T05:51:59;99381.88;;;26.04;34.75
50125;BME280;36023;48.670;6.184;2022-07-04T05:54:25;99370.41;;;26.03;34.56
50125;BME280;36023;48.670;6.184;2022-07-04T05:56:50;99370.41;;;26.03;34.87
50125;BME280;36023;48.670;6.184;2022-07-04T05:59:16;99368.75;;;26.02;34.74
50125;BME280;36023;48.670;6.184;2022-07-04T06:01:42;99370.69;;;26.00;34.86
50125;BME280;36023;48.670;6.184;2022-07-04T06:04:07;99377.66;;;26.01;34.75
50125;BME280;36023;48.670;6.184;2022-07-04T06:06:35;99383.94;;;26.00;34.86
50125;BME280;36023;48.670;6.184;2022-07-04T06:09:02;99389.34;;;25.99;34.77
50125;BME280;36023;48.670;6.184;2022-07-04T06:11:28;99400.94;;;25.98;34.75
50125;BME280;36023;48.670;6.184;2022-07-04T06:13:54;99399.13;;;25.98;34.69
50125;BME280;36023;48.670;6.184;2022-07-04T06:16:20;99402.75;;;25.97;34.71
50125;BME280;36023;48.670;6.184;2022-07-04T06:18:45;99402.75;;;25.97;34.69
50125;BME280;36023;48.670;6.184;2022-07-04T06:21:11;99415.19;;;25.97;34.69
50125;BME280;36023;48.670;6.184;2022-07-04T06:23:36;99429.28;;;25.97;34.75
50125;BME280;36023;48.670;6.184;2022-07-04T06:26:02;99425.78;;;25.97;34.57
50125;BME280;36023;48.670;6.184;2022-07-04T06:28:28;99430.25;;;25.96;34.88
50125;BME280;36023;48.670;6.184;2022-07-04T06:30:55;99430.25;;;25.96;34.82
50125;BME280;36023;48.670;6.184;2022-07-04T06:33:20;99432.06;;;25.96;34.90
50125;BME280;36023;48.670;6.184;2022-07-04T06:35:46;99432.91;;;25.96;34.79
50125;BME280;36023;48.670;6.184;2022-07-04T06:38:12;99431.22;;;25.95;34.90
50125;BME280;36023;48.670;6.184;2022-07-04T06:40:38;99430.38;;;25.95;34.96
50125;BME280;36023;48.670;6.184;2022-07-04T06:43:03;99429.53;;;25.94;34.94
50125;BME280;36023;48.670;6.184;2022-07-04T06:45:29;99438.47;;;25.93;35.17
50125;BME280;36023;48.670;6.184;2022-07-04T06:47:57;99432.31;;;25.93;34.93
50125;BME280;36023;48.670;6.184;2022-07-04T06:50:22;99435.81;;;25.93;34.91
50125;BME280;36023;48.670;6.184;2022-07-04T06:52:49;99428.81;;;25.92;35.07
50125;BME280;36023;48.670;6.184;2022-07-04T06:55:15;99437.63;;;25.93;35.31
50125;BME280;36023;48.670;6.184;2022-07-04T06:57:40;99436.78;;;25.92;35.34
50125;BME280;36023;48.670;6.184;2022-07-04T07:00:06;99437.72;;;25.91;35.11
50125;BME280;36023;48.670;6.184;2022-07-04T07:02:35;99437.72;;;25.91;35.11
50125;BME280;36023;48.670;6.184;2022-07-04T07:05:04;99436.78;;;25.92;35.19
50125;BME280;36023;48.670;6.184;2022-07-04T07:07:31;99438.59;;;25.92;35.32
50125;BME280;36023;48.670;6.184;2022-07-04T07:09:56;99435.06;;;25.91;35.32
50125;BME280;36023;48.670;6.184;2022-07-04T07:12:24;99437.72;;;25.91;35.42
50125;BME280;36023;48.670;6.184;2022-07-04T07:14:49;99437.72;;;25.91;35.41
50125;BME280;36023;48.670;6.184;2022-07-04T07:17:15;99437.72;;;25.91;35.50
50125;BME280;36023;48.670;6.184;2022-07-04T07:19:41;99433.28;;;25.92;35.34
50125;BME280;36023;48.670;6.184;2022-07-04T07:22:08;99436.88;;;25.91;35.40
50125;BME280;36023;48.670;6.184;2022-07-04T07:24:34;99433.38;;;25.90;35.58
50125;BME280;36023;48.670;6.184;2022-07-04T07:26:59;99436.03;;;25.90;35.72
50125;BME280;36023;48.670;6.184;2022-07-04T07:29:25;99438.69;;;25.90;35.60
50125;BME280;36023;48.670;6.184;2022-07-04T07:31:51;99435.19;;;25.90;35.61
50125;BME280;36023;48.670;6.184;2022-07-04T07:34:16;99425.53;;;25.89;35.54
50125;BME280;36023;48.670;6.184;2022-07-04T07:36:42;99429.88;;;25.90;35.72
50125;BME280;36023;48.670;6.184;2022-07-04T07:39:07;99427.34;;;25.88;35.76
50125;BME280;36023;48.670;6.184;2022-07-04T07:41:33;99425.66;;;25.87;35.89
50125;BME280;36023;48.670;6.184;2022-07-04T07:43:58;99427.34;;;25.88;35.78
50125;BME280;36023;48.670;6.184;2022-07-04T07:46:23;99424.81;;;25.87;35.78
50125;BME280;36023;48.670;6.184;2022-07-04T07:48:52;99419.41;;;25.88;35.83
50125;BME280;36023;48.670;6.184;2022-07-04T07:51:18;99422.91;;;25.89;35.78
50125;BME280;36023;48.670;6.184;2022-07-04T07:53:43;99416.75;;;25.88;35.91
50125;BME280;36023;48.670;6.184;2022-07-04T07:56:09;99414.09;;;25.88;35.88
50125;BME280;36023;48.670;6.184;2022-07-04T07:58:34;99419.28;;;25.90;35.98
50125;BME280;36023;48.670;6.184;2022-07-04T08:01:00;99414.94;;;25.89;35.77
50125;BME280;36023;48.670;6.184;2022-07-04T08:03:30;99407.81;;;25.89;36.07
50125;BME280;36023;48.670;6.184;2022-07-04T08:06:15;99407.81;;;25.89;35.88
50125;BME280;36023;48.670;6.184;2022-07-04T08:08:41;99410.47;;;25.89;36.00
50125;BME280;36023;48.670;6.184;2022-07-04T08:11:10;99408.53;;;25.91;35.89
50125;BME280;36023;48.670;6.184;2022-07-04T08:13:36;99407.69;;;25.91;36.15
50125;BME280;36023;48.670;6.184;2022-07-04T08:16:02;99395.25;;;25.91;36.01
50125;BME280;36023;48.670;6.184;2022-07-04T08:18:28;99397.91;;;25.91;36.09
50125;BME280;36023;48.670;6.184;2022-07-04T08:20:54;99397.91;;;25.91;35.96
50125;BME280;36023;48.670;6.184;2022-07-04T08:23:19;99394.31;;;25.92;36.03
50125;BME280;36023;48.670;6.184;2022-07-04T08:25:45;99387.28;;;25.91;35.90
50125;BME280;36023;48.670;6.184;2022-07-04T08:28:10;99387.28;;;25.91;35.88
50125;BME280;36023;48.670;6.184;2022-07-04T08:30:36;99380.22;;;25.92;36.20
50125;BME280;36023;48.670;6.184;2022-07-04T08:33:02;99380.31;;;25.90;36.15
50125;BME280;36023;48.670;6.184;2022-07-04T08:35:27;99383.94;;;25.89;36.20
50125;BME280;36023;48.670;6.184;2022-07-04T08:37:53;99376.94;;;25.88;35.97
50125;BME280;36023;48.670;6.184;2022-07-04T08:40:24;99371.75;;;25.87;36.18
50125;BME280;36023;48.670;6.184;2022-07-04T08:42:50;99379.72;;;25.87;36.29
50125;BME280;36023;48.670;6.184;2022-07-04T08:45:16;99371.03;;;25.85;36.24
50125;BME280;36023;48.670;6.184;2022-07-04T08:47:42;99382.50;;;25.85;36.30
50125;BME280;36023;48.670;6.184;2022-07-04T08:50:16;99375.50;;;25.84;36.34
50125;BME280;36023;48.670;6.184;2022-07-04T08:52:49;99379.94;;;25.83;36.40
50125;BME280;36023;48.670;6.184;2022-07-04T08:55:18;99379.09;;;25.83;36.19
50125;BME280;36023;48.670;6.184;2022-07-04T08:58:02;99375.59;;;25.82;36.43
50125;BME280;36023;48.670;6.184;2022-07-04T09:00:47;99375.72;;;25.81;36.62
50125;BME280;36023;48.670;6.184;2022-07-04T09:03:14;99372.34;;;25.79;36.49
50125;BME280;36023;48.670;6.184;2022-07-04T09:05:39;99373.19;;;25.79;36.50
50125;BME280;36023;48.670;6.184;2022-07-04T09:08:08;99375.13;;;25.77;36.51
50125;BME280;36023;48.670;6.184;2022-07-04T09:10:34;99366.34;;;25.77;36.60
50125;BME280;36023;48.670;6.184;2022-07-04T09:13:01;99369.81;;;25.77;36.66
50125;BME280;36023;48.670;6.184;2022-07-04T09:15:28;99371.63;;;25.77;36.54
50125;BME280;36023;48.670;6.184;2022-07-04T09:17:53;99362.00;;;25.76;36.79
50125;BME280;36023;48.670;6.184;2022-07-04T09:20:22;99369.09;;;25.75;36.83
50125;BME280;36023;48.670;6.184;2022-07-04T09:22:49;99373.44;;;25.76;36.83
50125;BME280;36023;48.670;6.184;2022-07-04T09:25:15;99361.13;;;25.75;36.74
50125;BME280;36023;48.670;6.184;2022-07-04T09:27:42;99362.94;;;25.75;36.76
50125;BME280;36023;48.670;6.184;2022-07-04T09:30:10;99351.38;;;25.76;36.80
50125;BME280;36023;48.670;6.184;2022-07-04T09:32:36;99350.50;;;25.75;36.72
50125;BME280;36023;48.670;6.184;2022-07-04T09:35:03;99344.38;;;25.75;36.70
50125;BME280;36023;48.670;6.184;2022-07-04T09:37:36;99344.38;;;25.75;36.94
50125;BME280;36023;48.670;6.184;2022-07-04T09:40:07;99350.50;;;25.75;36.88
50125;BME280;36023;48.670;6.184;2022-07-04T09:42:36;99347.00;;;25.75;36.84
50125;BME280;36023;48.670;6.184;2022-07-04T09:45:11;99343.53;;;25.74;36.65
50125;BME280;36023;48.670;6.184;2022-07-04T09:47:38;99337.38;;;25.74;36.94
50125;BME280;36023;48.670;6.184;2022-07-04T09:50:07;99337.38;;;25.74;36.75
50125;BME280;36023;48.670;6.184;2022-07-04T09:55:19;99342.69;;;25.74;36.52
50125;BME280;36023;48.670;6.184;2022-07-04T09:57:45;99342.81;;;25.72;36.75
50125;BME280;36023;48.670;6.184;2022-07-04T10:02:43;99332.28;;;25.71;36.60
50125;BME280;36023;48.670;6.184;2022-07-04T10:05:12;99337.59;;;25.71;36.54
50125;BME280;36023;48.670;6.184;2022-07-04T10:07:39;99324.31;;;25.71;36.41
50125;BME280;36023;48.670;6.184;2022-07-04T10:10:28;99327.94;;;25.70;36.39
50125;BME280;36023;48.670;6.184;2022-07-04T10:12:59;99334.09;;;25.70;36.53
50125;BME280;36023;48.670;6.184;2022-07-04T10:15:25;99335.91;;;25.70;36.47
50125;BME280;36023;48.670;6.184;2022-07-04T10:17:51;99337.72;;;25.69;36.42
50125;BME280;36023;48.670;6.184;2022-07-04T10:20:16;99335.91;;;25.70;36.36
50125;BME280;36023;48.670;6.184;2022-07-04T10:22:42;99336.75;;;25.70;36.33
50125;BME280;36023;48.670;6.184;2022-07-04T10:25:08;99326.97;;;25.71;36.54
50125;BME280;36023;48.670;6.184;2022-07-04T10:27:34;99324.31;;;25.71;36.34
50125;BME280;36023;48.670;6.184;2022-07-04T10:30:02;99329.53;;;25.72;36.48
50125;BME280;36023;48.670;6.184;2022-07-04T10:32:28;99320.75;;;25.72;36.41
50125;BME280;36023;48.670;6.184;2022-07-04T10:34:54;99319.91;;;25.71;36.20
50125;BME280;36023;48.670;6.184;2022-07-04T10:37:20;99326.88;;;25.72;36.29
50125;BME280;36023;48.670;6.184;2022-07-04T10:39:47;99326.75;;;25.74;36.31
50125;BME280;36023;48.670;6.184;2022-07-04T10:42:23;99328.56;;;25.73;36.46
50125;BME280;36023;48.670;6.184;2022-07-04T10:44:49;99325.06;;;25.73;36.37
50125;BME280;36023;48.670;6.184;2022-07-04T10:47:24;99334.72;;;25.74;36.38
50125;BME280;36023;48.670;6.184;2022-07-04T10:49:50;99323.25;;;25.73;36.40
50125;BME280;36023;48.670;6.184;2022-07-04T10:52:17;99319.66;;;25.74;36.37
50125;BME280;36023;48.670;6.184;2022-07-04T10:54:43;99320.63;;;25.73;36.33
50125;BME280;36023;48.670;6.184;2022-07-04T10:59:39;99322.28;;;25.74;36.34
50125;BME280;36023;48.670;6.184;2022-07-04T11:04:48;99319.66;;;25.74;36.39
50125;BME280;36023;48.670;6.184;2022-07-04T11:16:07;99328.34;;;25.76;36.34
50125;BME280;36023;48.670;6.184;2022-07-04T11:18:08;99326.63;;;25.75;36.34
50125;BME280;36023;48.670;6.184;2022-07-04T11:20:34;99323.13;;;25.75;36.37
50125;BME280;36023;48.670;6.184;2022-07-04T11:25:33;99318.66;;;25.75;36.32
50125;BME280;36023;48.670;6.184;2022-07-04T11:28:17;99316.03;;;25.75;36.07
50125;BME280;36023;48.670;6.184;2022-07-04T11:30:56;99319.53;;;25.76;36.28
50125;BME280;36023;48.670;6.184;2022-07-04T11:33:23;99320.47;;;25.75;36.13
50125;BME280;36023;48.670;6.184;2022-07-04T11:36:02;99321.31;;;25.75;36.31
50125;BME280;36023;48.670;6.184;2022-07-04T11:38:42;99323.13;;;25.75;36.08
50125;BME280;36023;48.670;6.184;2022-07-04T11:41:08;99326.63;;;25.75;36.14
50125;BME280;36023;48.670;6.184;2022-07-04T11:43:52;99320.47;;;25.75;36.14
50125;BME280;36023;48.670;6.184;2022-07-04T11:46:38;99320.47;;;25.75;36.20
50125;BME280;36023;48.670;6.184;2022-07-04T11:49:10;99325.78;;;25.75;36.09
50125;BME280;36023;48.670;6.184;2022-07-04T11:51:41;99320.63;;;25.73;36.10
50125;BME280;36023;48.670;6.184;2022-07-04T11:54:06;99317.84;;;25.75;35.94
50125;BME280;36023;48.670;6.184;2022-07-04T11:56:32;99322.28;;;25.74;36.07
50125;BME280;36023;48.670;6.184;2022-07-04T11:58:57;99325.78;;;25.75;35.97
50125;BME280;36023;48.670;6.184;2022-07-04T12:01:35;99329.28;;;25.75;36.00
50125;BME280;36023;48.670;6.184;2022-07-04T12:04:14;99323.13;;;25.75;35.85
50125;BME280;36023;48.670;6.184;2022-07-04T12:06:41;99317.75;;;25.76;35.89
50125;BME280;36023;48.670;6.184;2022-07-04T12:09:07;99318.66;;;25.75;35.77
50125;BME280;36023;48.670;6.184;2022-07-04T12:11:52;99311.59;;;25.76;35.93
50125;BME280;36023;48.670;6.184;2022-07-04T12:14:20;99301.91;;;25.75;35.92
50125;BME280;36023;48.670;6.184;2022-07-04T12:16:46;99308.94;;;25.76;35.82
50125;BME280;36023;48.670;6.184;2022-07-04T12:19:12;99305.41;;;25.75;35.67
50125;BME280;36023;48.670;6.184;2022-07-04T12:21:38;99314.25;;;25.76;35.87
50125;BME280;36023;48.670;6.184;2022-07-04T12:24:04;99307.13;;;25.76;35.87
50125;BME280;36023;48.670;6.184;2022-07-04T12:26:30;99302.75;;;25.75;35.83
50125;BME280;36023;48.670;6.184;2022-07-04T12:28:56;99306.28;;;25.76;35.87
50125;BME280;36023;48.670;6.184;2022-07-04T12:31:41;99304.47;;;25.76;35.68
50125;BME280;36023;48.670;6.184;2022-07-04T12:34:17;99296.59;;;25.75;35.54
50125;BME280;36023;48.670;6.184;2022-07-04T12:36:49;99298.31;;;25.76;35.66
50125;BME280;36023;48.670;6.184;2022-07-04T12:42:03;99293.84;;;25.76;35.82
50125;BME280;36023;48.670;6.184;2022-07-04T12:44:29;99298.19;;;25.77;35.70
50125;BME280;36023;48.670;6.184;2022-07-04T12:46:56;99294.69;;;25.77;35.46
50125;BME280;36023;48.670;6.184;2022-07-04T12:49:22;99287.59;;;25.77;35.72
50125;BME280;36023;48.670;6.184;2022-07-04T12:51:48;99294.69;;;25.77;35.50
50125;BME280;36023;48.670;6.184;2022-07-04T12:54:13;99281.44;;;25.77;35.53
50125;BME280;36023;48.670;6.184;2022-07-04T12:56:43;99286.63;;;25.78;35.52
50125;BME280;36023;48.670;6.184;2022-07-04T12:59:10;99276.00;;;25.78;35.57
50125;BME280;36023;48.670;6.184;2022-07-04T13:01:36;99276.84;;;25.79;35.61
50125;BME280;36023;48.670;6.184;2022-07-04T13:04:02;99275.03;;;25.79;35.57
50125;BME280;36023;48.670;6.184;2022-07-04T13:06:29;99278.53;;;25.80;35.54
50125;BME280;36023;48.670;6.184;2022-07-04T13:08:55;99267.91;;;25.80;35.44
50125;BME280;36023;48.670;6.184;2022-07-04T13:11:23;99259.94;;;25.80;35.34
50125;BME280;36023;48.670;6.184;2022-07-04T13:14:08;99258.16;;;25.80;35.44
50125;BME280;36023;48.670;6.184;2022-07-04T13:16:33;99252.00;;;25.80;35.50
50125;BME280;36023;48.670;6.184;2022-07-04T13:18:59;99251.03;;;25.81;35.49
50125;BME280;36023;48.670;6.184;2022-07-04T13:21:25;99243.91;;;25.81;35.52
50125;BME280;36023;48.670;6.184;2022-07-04T13:23:51;99245.72;;;25.81;35.60
50125;BME280;36023;48.670;6.184;2022-07-04T13:26:17;99234.13;;;25.82;35.51